sensor_id;sensor_type;location;lat;lon;timestamp;P1;durP1;ratioP1;P2;durP2;ratioP2
12792;SDS011;6460;42.684;23.260;2024-03-29T03:30:06;2.83;;;1.33;;
12792;SDS011;6460;42.684;23.260;2024-03-29T03:32:35;4.23;;;1.60;;
12792;SDS011;6460;42.684;23.260;2024-03-29T03:35:01;3.17;;;1.57;;
12792;SDS011;6460;42.684;23.260;2024-03-29T03:50:30;2.57;;;1.47;;
12792;SDS011;6460;42.684;23.260;2024-03-29T03:59:41;5.80;;;1.83;;
12792;SDS011;6460;42.684;23.260;2024-03-29T04:02:08;3.93;;;1.93;;
12792;SDS011;6460;42.684;23.260;2024-03-29T04:04:35;3.10;;;1.80;;
12792;SDS011;6460;42.684;23.260;2024-03-29T04:07:04;4.57;;;2.27;;
12792;SDS011;6460;42.684;23.260;2024-03-29T04:09:30;3.77;;;1.90;;
12792;SDS011;6460;42.684;23.260;2024-03-29T04:12:09;4.53;;;2.30;;
12792;SDS011;6460;42.684;23.260;2024-03-29T04:14:35;5.80;;;2.40;;
12792;SDS011;6460;42.684;23.260;2024-03-29T04:17:02;4.87;;;2.40;;
12792;SDS011;6460;42.684;23.260;2024-03-29T04:19:29;4.80;;;2.23;;
12792;SDS011;6460;42.684;23.260;2024-03-29T04:21:56;6.77;;;2.63;;
12792;SDS011;6460;42.684;23.260;2024-03-29T04:24:23;4.40;;;2.40;;
12792;SDS011;6460;42.684;23.260;2024-03-29T04:26:50;4.63;;;2.60;;
12792;SDS011;6460;42.684;23.260;2024-03-29T04:29:26;7.20;;;2.83;;
12792;SDS011;6460;42.684;23.260;2024-03-29T04:42:16;11.20;;;5.53;;
12792;SDS011;6460;42.684;23.260;2024-03-29T04:44:43;9.80;;;5.10;;
12792;SDS011;6460;42.684;23.260;2024-03-29T04:47:12;7.83;;;4.57;;
12792;SDS011;6460;42.684;23.260;2024-03-29T04:49:41;4.40;;;2.90;;
12792;SDS011;6460;42.684;23.260;2024-03-29T04:52:10;8.03;;;3.03;;
12792;SDS011;6460;42.684;23.260;2024-03-29T05:21:27;5.97;;;2.60;;
12792;SDS011;6460;42.684;23.260;2024-03-29T05:31:40;4.73;;;2.40;;
12792;SDS011;6460;42.684;23.260;2024-03-29T05:34:10;5.60;;;1.83;;
12792;SDS011;6460;42.684;23.260;2024-03-29T05:40:02;5.83;;;1.80;;
12792;SDS011;6460;42.684;23.260;2024-03-29T06:44:54;2.57;;;1.33;;
12792;SDS011;6460;42.684;23.260;2024-03-29T07:49:39;4.57;;;1.50;;
12792;SDS011;6460;42.684;23.260;2024-03-29T07:52:07;2.77;;;1.50;;
12792;SDS011;6460;42.684;23.260;2024-03-29T07:54:34;2.00;;;1.10;;
12792;SDS011;6460;42.684;23.260;2024-03-29T07:57:01;4.27;;;1.63;;
12792;SDS011;6460;42.684;23.260;2024-03-29T07:59:29;2.53;;;1.30;;
12792;SDS011;6460;42.684;23.260;2024-03-29T08:01:57;3.03;;;1.50;;
12792;SDS011;6460;42.684;23.260;2024-03-29T08:04:27;3.80;;;1.17;;
12792;SDS011;6460;42.684;23.260;2024-03-29T08:06:56;2.50;;;1.17;;
12792;SDS011;6460;42.684;23.260;2024-03-29T08:09:24;4.57;;;1.37;;
12792;SDS011;6460;42.684;23.260;2024-03-29T08:11:52;4.53;;;1.43;;
12792;SDS011;6460;42.684;23.260;2024-03-29T08:14:20;3.33;;;1.50;;
12792;SDS011;6460;42.684;23.260;2024-03-29T08:16:51;3.00;;;1.20;;
12792;SDS011;6460;42.684;23.260;2024-03-29T08:19:19;2.67;;;1.47;;
12792;SDS011;6460;42.684;23.260;2024-03-29T08:21:48;3.20;;;1.20;;
12792;SDS011;6460;42.684;23.260;2024-03-29T08:24:17;3.50;;;1.23;;
12792;SDS011;6460;42.684;23.260;2024-03-29T08:26:45;3.93;;;1.30;;
12792;SDS011;6460;42.684;23.260;2024-03-29T08:29:14;3.03;;;1.27;;
12792;SDS011;6460;42.684;23.260;2024-03-29T08:31:41;3.20;;;1.30;;
12792;SDS011;6460;42.684;23.260;2024-03-29T08:34:08;4.63;;;1.30;;
12792;SDS011;6460;42.684;23.260;2024-03-29T08:36:38;2.33;;;1.30;;
12792;SDS011;6460;42.684;23.260;2024-03-29T08:39:06;2.57;;;1.30;;
12792;SDS011;6460;42.684;23.260;2024-03-29T08:41:35;1.73;;;1.13;;
12792;SDS011;6460;42.684;23.260;2024-03-29T08:44:03;3.13;;;1.50;;
12792;SDS011;6460;42.684;23.260;2024-03-29T08:46:31;2.03;;;1.03;;
12792;SDS011;6460;42.684;23.260;2024-03-29T08:48:59;2.63;;;1.80;;
12792;SDS011;6460;42.684;23.260;2024-03-29T08:51:27;3.87;;;1.30;;
12792;SDS011;6460;42.684;23.260;2024-03-29T08:53:55;3.80;;;1.20;;
12792;SDS011;6460;42.684;23.260;2024-03-29T08:56:24;2.33;;;1.53;;
12792;SDS011;6460;42.684;23.260;2024-03-29T08:58:53;1.93;;;1.10;;
12792;SDS011;6460;42.684;23.260;2024-03-29T09:01:21;1.73;;;1.23;;
12792;SDS011;6460;42.684;23.260;2024-03-29T09:03:49;2.80;;;1.23;;
12792;SDS011;6460;42.684;23.260;2024-03-29T09:06:16;2.87;;;1.20;;
12792;SDS011;6460;42.684;23.260;2024-03-29T09:08:45;5.57;;;1.70;;
12792;SDS011;6460;42.684;23.260;2024-03-29T09:11:13;3.47;;;1.50;;
12792;SDS011;6460;42.684;23.260;2024-03-29T09:13:41;6.97;;;1.43;;
12792;SDS011;6460;42.684;23.260;2024-03-29T09:16:11;3.70;;;1.30;;
12792;SDS011;6460;42.684;23.260;2024-03-29T09:18:39;3.33;;;1.30;;
12792;SDS011;6460;42.684;23.260;2024-03-29T09:21:07;2.37;;;1.40;;
12792;SDS011;6460;42.684;23.260;2024-03-29T09:23:36;2.87;;;1.20;;
12792;SDS011;6460;42.684;23.260;2024-03-29T09:26:07;4.00;;;1.80;;
12792;SDS011;6460;42.684;23.260;2024-03-29T09:28:36;3.07;;;1.40;;
12792;SDS011;6460;42.684;23.260;2024-03-29T09:31:04;4.00;;;1.13;;
12792;SDS011;6460;42.684;23.260;2024-03-29T09:33:33;1.53;;;1.00;;
12792;SDS011;6460;42.684;23.260;2024-03-29T09:36:01;4.93;;;1.10;;
12792;SDS011;6460;42.684;23.260;2024-03-29T09:38:30;4.67;;;1.43;;
12792;SDS011;6460;42.684;23.260;2024-03-29T09:41:00;4.40;;;1.30;;
12792;SDS011;6460;42.684;23.260;2024-03-29T09:43:35;2.83;;;1.27;;
12792;SDS011;6460;42.684;23.260;2024-03-29T09:46:04;2.57;;;1.50;;
12792;SDS011;6460;42.684;23.260;2024-03-29T09:48:34;3.33;;;1.60;;
12792;SDS011;6460;42.684;23.260;2024-03-29T09:51:05;2.87;;;1.50;;
12792;SDS011;6460;42.684;23.260;2024-03-29T09:53:34;3.43;;;1.50;;
12792;SDS011;6460;42.684;23.260;2024-03-29T09:56:03;3.23;;;1.33;;
12792;SDS011;6460;42.684;23.260;2024-03-29T09:58:32;2.97;;;1.30;;
12792;SDS011;6460;42.684;23.260;2024-03-29T10:01:01;4.90;;;1.50;;
12792;SDS011;6460;42.684;23.260;2024-03-29T10:03:30;5.60;;;1.50;;
12792;SDS011;6460;42.684;23.260;2024-03-29T10:06:00;2.90;;;1.37;;
12792;SDS011;6460;42.684;23.260;2024-03-29T10:08:30;4.10;;;1.60;;
12792;SDS011;6460;42.684;23.260;2024-03-29T10:10:58;2.50;;;1.23;;
12792;SDS011;6460;42.684;23.260;2024-03-29T10:13:27;4.67;;;1.33;;
12792;SDS011;6460;42.684;23.260;2024-03-29T10:15:55;2.73;;;1.10;;
12792;SDS011;6460;42.684;23.260;2024-03-29T10:18:24;5.17;;;1.90;;
12792;SDS011;6460;42.684;23.260;2024-03-29T10:21:00;7.50;;;1.47;;
12792;SDS011;6460;42.684;23.260;2024-03-29T10:23:29;2.43;;;1.40;;
12792;SDS011;6460;42.684;23.260;2024-03-29T10:25:58;5.03;;;1.47;;
12792;SDS011;6460;42.684;23.260;2024-03-29T10:28:29;2.87;;;1.30;;
12792;SDS011;6460;42.684;23.260;2024-03-29T10:30:58;3.87;;;1.80;;
12792;SDS011;6460;42.684;23.260;2024-03-29T10:33:28;4.93;;;1.77;;
12792;SDS011;6460;42.684;23.260;2024-03-29T10:35:57;3.83;;;1.37;;
12792;SDS011;6460;42.684;23.260;2024-03-29T10:38:27;2.73;;;1.33;;
12792;SDS011;6460;42.684;23.260;2024-03-29T10:40:55;5.80;;;2.03;;
12792;SDS011;6460;42.684;23.260;2024-03-29T10:43:24;2.30;;;1.50;;
12792;SDS011;6460;42.684;23.260;2024-03-29T10:45:52;4.60;;;1.30;;
12792;SDS011;6460;42.684;23.260;2024-03-29T10:48:25;5.07;;;1.73;;
12792;SDS011;6460;42.684;23.260;2024-03-29T10:50:54;4.10;;;1.60;;
12792;SDS011;6460;42.684;23.260;2024-03-29T10:53:23;3.57;;;1.83;;
12792;SDS011;6460;42.684;23.260;2024-03-29T10:55:54;5.93;;;1.87;;
12792;SDS011;6460;42.684;23.260;2024-03-29T10:58:25;7.53;;;1.70;;
12792;SDS011;6460;42.684;23.260;2024-03-29T11:01:00;3.60;;;1.50;;
12792;SDS011;6460;42.684;23.260;2024-03-29T11:03:32;4.90;;;1.87;;
12792;SDS011;6460;42.684;23.260;2024-03-29T11:06:07;4.57;;;1.50;;
12792;SDS011;6460;42.684;23.260;2024-03-29T11:08:39;7.37;;;1.60;;
12792;SDS011;6460;42.684;23.260;2024-03-29T11:11:12;3.20;;;1.40;;
12792;SDS011;6460;42.684;23.260;2024-03-29T11:13:43;3.20;;;1.67;;
12792;SDS011;6460;42.684;23.260;2024-03-29T11:16:15;4.57;;;1.40;;
12792;SDS011;6460;42.684;23.260;2024-03-29T11:18:44;5.73;;;1.50;;
12792;SDS011;6460;42.684;23.260;2024-03-29T11:21:12;4.43;;;1.60;;
12792;SDS011;6460;42.684;23.260;2024-03-29T11:23:47;3.70;;;1.60;;
12792;SDS011;6460;42.684;23.260;2024-03-29T11:26:34;3.20;;;1.70;;
12792;SDS011;6460;42.684;23.260;2024-03-29T11:29:03;4.83;;;1.60;;
12792;SDS011;6460;42.684;23.260;2024-03-29T11:31:30;4.57;;;1.53;;
12792;SDS011;6460;42.684;23.260;2024-03-29T11:33:58;5.00;;;1.83;;
12792;SDS011;6460;42.684;23.260;2024-03-29T11:36:27;4.27;;;1.53;;
12792;SDS011;6460;42.684;23.260;2024-03-29T11:38:56;2.40;;;1.57;;
12792;SDS011;6460;42.684;23.260;2024-03-29T11:41:25;3.20;;;1.57;;
12792;SDS011;6460;42.684;23.260;2024-03-29T11:43:56;3.53;;;1.57;;
12792;SDS011;6460;42.684;23.260;2024-03-29T11:46:24;2.67;;;1.40;;
12792;SDS011;6460;42.684;23.260;2024-03-29T11:48:52;2.83;;;1.33;;
12792;SDS011;6460;42.684;23.260;2024-03-29T11:51:21;2.80;;;1.43;;
12792;SDS011;6460;42.684;23.260;2024-03-29T11:53:49;2.90;;;2.00;;
12792;SDS011;6460;42.684;23.260;2024-03-29T11:56:18;4.40;;;1.67;;
12792;SDS011;6460;42.684;23.260;2024-03-29T11:58:46;4.00;;;2.30;;
12792;SDS011;6460;42.684;23.260;2024-03-29T12:01:16;2.73;;;1.33;;
12792;SDS011;6460;42.684;23.260;2024-03-29T12:06:31;3.57;;;1.77;;
12792;SDS011;6460;42.684;23.260;2024-03-29T12:08:58;2.60;;;1.47;;
12792;SDS011;6460;42.684;23.260;2024-03-29T12:11:25;3.83;;;1.50;;
12792;SDS011;6460;42.684;23.260;2024-03-29T12:13:54;2.13;;;1.20;;
12792;SDS011;6460;42.684;23.260;2024-03-29T12:16:25;2.87;;;1.60;;
12792;SDS011;6460;42.684;23.260;2024-03-29T12:18:52;6.13;;;1.90;;
12792;SDS011;6460;42.684;23.260;2024-03-29T12:21:20;4.27;;;1.33;;
12792;SDS011;6460;42.684;23.260;2024-03-29T12:23:47;4.37;;;1.50;;
12792;SDS011;6460;42.684;23.260;2024-03-29T12:26:15;4.70;;;1.60;;
12792;SDS011;6460;42.684;23.260;2024-03-29T12:28:48;6.27;;;1.53;;
12792;SDS011;6460;42.684;23.260;2024-03-29T12:31:16;3.53;;;1.40;;
12792;SDS011;6460;42.684;23.260;2024-03-29T12:33:51;5.03;;;1.53;;
12792;SDS011;6460;42.684;23.260;2024-03-29T12:36:22;4.33;;;1.63;;
12792;SDS011;6460;42.684;23.260;2024-03-29T12:38:53;3.47;;;1.43;;
12792;SDS011;6460;42.684;23.260;2024-03-29T12:41:23;3.50;;;1.63;;
12792;SDS011;6460;42.684;23.260;2024-03-29T12:43:51;2.90;;;1.30;;
12792;SDS011;6460;42.684;23.260;2024-03-29T12:46:18;2.43;;;1.27;;
12792;SDS011;6460;42.684;23.260;2024-03-29T12:48:46;6.70;;;1.33;;
12792;SDS011;6460;42.684;23.260;2024-03-29T12:51:15;2.97;;;1.40;;
12792;SDS011;6460;42.684;23.260;2024-03-29T12:53:45;6.47;;;1.57;;
12792;SDS011;6460;42.684;23.260;2024-03-29T12:56:16;3.10;;;1.30;;
12792;SDS011;6460;42.684;23.260;2024-03-29T12:58:43;5.07;;;1.50;;
12792;SDS011;6460;42.684;23.260;2024-03-29T13:01:11;6.03;;;1.30;;
12792;SDS011;6460;42.684;23.260;2024-03-29T13:03:38;3.83;;;1.40;;
12792;SDS011;6460;42.684;23.260;2024-03-29T13:06:06;3.97;;;1.67;;
12792;SDS011;6460;42.684;23.260;2024-03-29T13:08:35;2.40;;;1.20;;
12792;SDS011;6460;42.684;23.260;2024-03-29T13:11:03;3.37;;;1.30;;
12792;SDS011;6460;42.684;23.260;2024-03-29T13:13:31;2.67;;;1.20;;
12792;SDS011;6460;42.684;23.260;2024-03-29T13:15:58;1.37;;;1.03;;
12792;SDS011;6460;42.684;23.260;2024-03-29T13:18:25;2.17;;;1.17;;
12792;SDS011;6460;42.684;23.260;2024-03-29T13:20:53;1.73;;;0.90;;
12792;SDS011;6460;42.684;23.260;2024-03-29T13:23:21;4.43;;;1.27;;
12792;SDS011;6460;42.684;23.260;2024-03-29T13:25:51;2.97;;;1.20;;
12792;SDS011;6460;42.684;23.260;2024-03-29T13:28:20;3.83;;;1.30;;
12792;SDS011;6460;42.684;23.260;2024-03-29T13:30:48;1.70;;;1.10;;
12792;SDS011;6460;42.684;23.260;2024-03-29T13:33:17;3.53;;;1.27;;
12792;SDS011;6460;42.684;23.260;2024-03-29T13:35:44;3.97;;;1.20;;
12792;SDS011;6460;42.684;23.260;2024-03-29T13:38:11;1.77;;;1.07;;
12792;SDS011;6460;42.684;23.260;2024-03-29T13:40:39;2.87;;;1.03;;
12792;SDS011;6460;42.684;23.260;2024-03-29T13:43:07;2.50;;;1.20;;
12792;SDS011;6460;42.684;23.260;2024-03-29T13:45:35;2.73;;;1.53;;
12792;SDS011;6460;42.684;23.260;2024-03-29T13:48:02;2.73;;;1.37;;
12792;SDS011;6460;42.684;23.260;2024-03-29T13:50:31;5.20;;;1.50;;
12792;SDS011;6460;42.684;23.260;2024-03-29T13:52:59;5.33;;;1.40;;
12792;SDS011;6460;42.684;23.260;2024-03-29T13:55:26;2.47;;;1.30;;
12792;SDS011;6460;42.684;23.260;2024-03-29T13:57:54;3.17;;;1.17;;
12792;SDS011;6460;42.684;23.260;2024-03-29T14:00:23;1.80;;;1.23;;
12792;SDS011;6460;42.684;23.260;2024-03-29T14:02:51;3.50;;;1.20;;
12792;SDS011;6460;42.684;23.260;2024-03-29T14:05:19;3.30;;;1.23;;
12792;SDS011;6460;42.684;23.260;2024-03-29T14:07:46;4.93;;;1.50;;
12792;SDS011;6460;42.684;23.260;2024-03-29T14:10:15;3.00;;;1.30;;
12792;SDS011;6460;42.684;23.260;2024-03-29T14:12:43;2.13;;;1.27;;
12792;SDS011;6460;42.684;23.260;2024-03-29T14:15:11;2.90;;;1.20;;
12792;SDS011;6460;42.684;23.260;2024-03-29T14:17:39;2.90;;;1.33;;
12792;SDS011;6460;42.684;23.260;2024-03-29T14:20:07;2.40;;;1.00;;
12792;SDS011;6460;42.684;23.260;2024-03-29T14:22:35;2.37;;;1.27;;
12792;SDS011;6460;42.684;23.260;2024-03-29T14:25:04;5.43;;;1.10;;
12792;SDS011;6460;42.684;23.260;2024-03-29T14:27:36;2.87;;;1.13;;
12792;SDS011;6460;42.684;23.260;2024-03-29T14:30:12;2.40;;;1.00;;
12792;SDS011;6460;42.684;23.260;2024-03-29T14:32:45;1.13;;;1.03;;
12792;SDS011;6460;42.684;23.260;2024-03-29T14:35:14;2.57;;;1.10;;
12792;SDS011;6460;42.684;23.260;2024-03-29T14:37:45;3.90;;;1.23;;
12792;SDS011;6460;42.684;23.260;2024-03-29T14:40:13;2.60;;;1.30;;
12792;SDS011;6460;42.684;23.260;2024-03-29T14:42:41;1.23;;;0.87;;
12792;SDS011;6460;42.684;23.260;2024-03-29T14:45:09;1.97;;;1.10;;
12792;SDS011;6460;42.684;23.260;2024-03-29T14:47:37;2.67;;;1.30;;
12792;SDS011;6460;42.684;23.260;2024-03-29T14:50:07;2.00;;;1.03;;
12792;SDS011;6460;42.684;23.260;2024-03-29T14:52:35;1.53;;;1.10;;
12792;SDS011;6460;42.684;23.260;2024-03-29T14:55:03;2.87;;;1.13;;
12792;SDS011;6460;42.684;23.260;2024-03-29T14:57:31;2.70;;;1.30;;
12792;SDS011;6460;42.684;23.260;2024-03-29T14:59:58;1.90;;;1.00;;
12792;SDS011;6460;42.684;23.260;2024-03-29T15:02:25;3.80;;;1.10;;
12792;SDS011;6460;42.684;23.260;2024-03-29T15:04:53;2.60;;;1.80;;
12792;SDS011;6460;42.684;23.260;2024-03-29T15:07:21;2.17;;;1.37;;
12792;SDS011;6460;42.684;23.260;2024-03-29T15:09:49;1.87;;;1.00;;
12792;SDS011;6460;42.684;23.260;2024-03-29T15:12:16;2.50;;;1.20;;
12792;SDS011;6460;42.684;23.260;2024-03-29T15:14:44;2.07;;;1.13;;
12792;SDS011;6460;42.684;23.260;2024-03-29T15:17:11;4.07;;;1.30;;
12792;SDS011;6460;42.684;23.260;2024-03-29T15:19:39;5.17;;;1.20;;
12792;SDS011;6460;42.684;23.260;2024-03-29T15:22:06;2.60;;;1.20;;
12792;SDS011;6460;42.684;23.260;2024-03-29T15:24:37;1.30;;;1.03;;
12792;SDS011;6460;42.684;23.260;2024-03-29T15:27:05;1.50;;;1.10;;
12792;SDS011;6460;42.684;23.260;2024-03-29T15:29:41;2.47;;;1.20;;
12792;SDS011;6460;42.684;23.260;2024-03-29T15:32:07;1.63;;;1.20;;
12792;SDS011;6460;42.684;23.260;2024-03-29T15:34:35;2.07;;;1.07;;
12792;SDS011;6460;42.684;23.260;2024-03-29T15:37:03;2.10;;;1.17;;
12792;SDS011;6460;42.684;23.260;2024-03-29T15:39:30;2.87;;;1.40;;
12792;SDS011;6460;42.684;23.260;2024-03-29T15:42:00;4.10;;;1.47;;
12792;SDS011;6460;42.684;23.260;2024-03-29T15:44:28;3.10;;;1.60;;
12792;SDS011;6460;42.684;23.260;2024-03-29T15:46:55;2.83;;;1.50;;
12792;SDS011;6460;42.684;23.260;2024-03-29T15:49:22;6.60;;;1.80;;
12792;SDS011;6460;42.684;23.260;2024-03-29T15:51:49;5.07;;;1.80;;
12792;SDS011;6460;42.684;23.260;2024-03-29T15:54:17;4.70;;;1.70;;
12792;SDS011;6460;42.684;23.260;2024-03-29T15:56:46;4.53;;;1.50;;
12792;SDS011;6460;42.684;23.260;2024-03-29T15:59:16;6.53;;;2.20;;
12792;SDS011;6460;42.684;23.260;2024-03-29T16:01:42;5.33;;;2.07;;
12792;SDS011;6460;42.684;23.260;2024-03-29T16:04:09;7.50;;;2.17;;
12792;SDS011;6460;42.684;23.260;2024-03-29T16:06:37;8.00;;;2.50;;
12792;SDS011;6460;42.684;23.260;2024-03-29T16:09:05;7.93;;;2.93;;
12792;SDS011;6460;42.684;23.260;2024-03-29T16:11:34;9.07;;;3.20;;
12792;SDS011;6460;42.684;23.260;2024-03-29T16:14:02;9.17;;;2.73;;
12792;SDS011;6460;42.684;23.260;2024-03-29T16:16:31;9.10;;;2.67;;
12792;SDS011;6460;42.684;23.260;2024-03-29T16:18:58;29.43;;;4.03;;
12792;SDS011;6460;42.684;23.260;2024-03-29T16:21:27;10.63;;;3.00;;
12792;SDS011;6460;42.684;23.260;2024-03-29T16:23:56;13.87;;;6.37;;
12792;SDS011;6460;42.684;23.260;2024-03-29T16:26:24;6.83;;;2.40;;
12792;SDS011;6460;42.684;23.260;2024-03-29T16:28:51;10.07;;;3.00;;
12792;SDS011;6460;42.684;23.260;2024-03-29T16:31:21;9.90;;;2.57;;
12792;SDS011;6460;42.684;23.260;2024-03-29T16:33:50;7.63;;;2.57;;
12792;SDS011;6460;42.684;23.260;2024-03-29T16:36:18;7.30;;;2.50;;
12792;SDS011;6460;42.684;23.260;2024-03-29T16:38:45;9.50;;;2.50;;
12792;SDS011;6460;42.684;23.260;2024-03-29T16:41:13;9.73;;;2.83;;
12792;SDS011;6460;42.684;23.260;2024-03-29T16:43:40;8.33;;;2.83;;
12792;SDS011;6460;42.684;23.260;2024-03-29T16:46:08;6.97;;;2.37;;
12792;SDS011;6460;42.684;23.260;2024-03-29T16:48:35;15.90;;;3.30;;
12792;SDS011;6460;42.684;23.260;2024-03-29T16:51:05;15.77;;;3.87;;
12792;SDS011;6460;42.684;23.260;2024-03-29T16:53:33;10.53;;;3.10;;
12792;SDS011;6460;42.684;23.260;2024-03-29T16:56:03;7.47;;;2.93;;
12792;SDS011;6460;42.684;23.260;2024-03-29T16:58:30;7.23;;;3.27;;
12792;SDS011;6460;42.684;23.260;2024-03-29T17:00:58;10.00;;;2.87;;
12792;SDS011;6460;42.684;23.260;2024-03-29T17:03:25;9.23;;;3.20;;
12792;SDS011;6460;42.684;23.260;2024-03-29T17:05:53;8.67;;;3.00;;
12792;SDS011;6460;42.684;23.260;2024-03-29T17:08:22;9.73;;;3.93;;
12792;SDS011;6460;42.684;23.260;2024-03-29T17:10:50;11.23;;;3.30;;
12792;SDS011;6460;42.684;23.260;2024-03-29T17:13:17;11.73;;;4.70;;
12792;SDS011;6460;42.684;23.260;2024-03-29T17:15:47;8.93;;;3.23;;
12792;SDS011;6460;42.684;23.260;2024-03-29T17:18:14;12.10;;;4.10;;
12792;SDS011;6460;42.684;23.260;2024-03-29T17:20:42;18.00;;;4.67;;
12792;SDS011;6460;42.684;23.260;2024-03-29T17:23:09;13.93;;;5.20;;
12792;SDS011;6460;42.684;23.260;2024-03-29T17:25:39;16.03;;;5.40;;
12792;SDS011;6460;42.684;23.260;2024-03-29T17:28:06;13.80;;;5.47;;
12792;SDS011;6460;42.684;23.260;2024-03-29T17:30:34;12.83;;;4.43;;
12792;SDS011;6460;42.684;23.260;2024-03-29T17:33:01;7.80;;;3.27;;
12792;SDS011;6460;42.684;23.260;2024-03-29T17:35:29;9.07;;;3.00;;
12792;SDS011;6460;42.684;23.260;2024-03-29T17:37:55;4.63;;;2.80;;
12792;SDS011;6460;42.684;23.260;2024-03-29T17:40:27;8.63;;;3.63;;
12792;SDS011;6460;42.684;23.260;2024-03-29T17:42:56;6.23;;;3.17;;
12792;SDS011;6460;42.684;23.260;2024-03-29T17:45:24;5.93;;;3.27;;
12792;SDS011;6460;42.684;23.260;2024-03-29T17:47:51;8.47;;;3.17;;
12792;SDS011;6460;42.684;23.260;2024-03-29T17:50:19;6.20;;;3.33;;
12792;SDS011;6460;42.684;23.260;2024-03-29T17:52:46;8.70;;;4.63;;
12792;SDS011;6460;42.684;23.260;2024-03-29T17:55:14;9.87;;;4.83;;
12792;SDS011;6460;42.684;23.260;2024-03-29T17:57:41;13.87;;;6.47;;
12792;SDS011;6460;42.684;23.260;2024-03-29T18:00:11;10.67;;;5.60;;
12792;SDS011;6460;42.684;23.260;2024-03-29T18:02:40;13.37;;;4.73;;
12792;SDS011;6460;42.684;23.260;2024-03-29T18:05:08;6.20;;;2.90;;
12792;SDS011;6460;42.684;23.260;2024-03-29T18:07:35;8.77;;;2.80;;
12792;SDS011;6460;42.684;23.260;2024-03-29T18:10:02;8.80;;;3.10;;
12792;SDS011;6460;42.684;23.260;2024-03-29T18:12:29;11.47;;;3.40;;
12792;SDS011;6460;42.684;23.260;2024-03-29T18:14:56;10.80;;;3.17;;
12792;SDS011;6460;42.684;23.260;2024-03-29T18:17:24;6.73;;;2.67;;
12792;SDS011;6460;42.684;23.260;2024-03-29T18:19:51;9.13;;;3.33;;
12792;SDS011;6460;42.684;23.260;2024-03-29T18:22:18;9.67;;;4.90;;
12792;SDS011;6460;42.684;23.260;2024-03-29T18:24:45;10.47;;;3.90;;
12792;SDS011;6460;42.684;23.260;2024-03-29T18:27:12;12.37;;;4.50;;
12792;SDS011;6460;42.684;23.260;2024-03-29T18:29:39;6.83;;;4.00;;
12792;SDS011;6460;42.684;23.260;2024-03-29T18:32:06;11.13;;;3.93;;
12792;SDS011;6460;42.684;23.260;2024-03-29T18:34:37;8.47;;;4.07;;
12792;SDS011;6460;42.684;23.260;2024-03-29T18:37:03;6.30;;;2.90;;
12792;SDS011;6460;42.684;23.260;2024-03-29T18:39:31;8.80;;;3.83;;
12792;SDS011;6460;42.684;23.260;2024-03-29T18:41:58;7.77;;;3.93;;
12792;SDS011;6460;42.684;23.260;2024-03-29T18:44:26;8.33;;;3.17;;
12792;SDS011;6460;42.684;23.260;2024-03-29T18:46:53;5.97;;;3.63;;
12792;SDS011;6460;42.684;23.260;2024-03-29T18:49:21;6.13;;;3.57;;
12792;SDS011;6460;42.684;23.260;2024-03-29T18:51:50;8.30;;;4.00;;
12792;SDS011;6460;42.684;23.260;2024-03-29T18:54:17;9.17;;;3.70;;
12792;SDS011;6460;42.684;23.260;2024-03-29T18:56:43;13.87;;;4.10;;
12792;SDS011;6460;42.684;23.260;2024-03-29T18:59:13;9.27;;;4.50;;
12792;SDS011;6460;42.684;23.260;2024-03-29T19:01:41;9.10;;;4.40;;
12792;SDS011;6460;42.684;23.260;2024-03-29T19:04:09;17.33;;;5.60;;
12792;SDS011;6460;42.684;23.260;2024-03-29T19:06:35;13.33;;;6.00;;
12792;SDS011;6460;42.684;23.260;2024-03-29T19:09:07;14.17;;;5.97;;
12792;SDS011;6460;42.684;23.260;2024-03-29T19:11:35;20.10;;;7.27;;
12792;SDS011;6460;42.684;23.260;2024-03-29T19:14:03;15.77;;;5.30;;
12792;SDS011;6460;42.684;23.260;2024-03-29T19:16:29;7.20;;;4.73;;
12792;SDS011;6460;42.684;23.260;2024-03-29T19:18:57;9.83;;;4.67;;
12792;SDS011;6460;42.684;23.260;2024-03-29T19:21:23;11.27;;;4.70;;
12792;SDS011;6460;42.684;23.260;2024-03-29T19:23:51;9.07;;;4.07;;
12792;SDS011;6460;42.684;23.260;2024-03-29T19:26:18;16.23;;;5.30;;
12792;SDS011;6460;42.684;23.260;2024-03-29T19:28:46;11.50;;;4.97;;
12792;SDS011;6460;42.684;23.260;2024-03-29T19:31:12;13.03;;;5.47;;
12792;SDS011;6460;42.684;23.260;2024-03-29T19:33:39;11.80;;;5.23;;
12792;SDS011;6460;42.684;23.260;2024-03-29T19:36:06;12.17;;;4.70;;
12792;SDS011;6460;42.684;23.260;2024-03-29T19:38:34;14.57;;;4.70;;
12792;SDS011;6460;42.684;23.260;2024-03-29T19:41:00;9.80;;;5.30;;
12792;SDS011;6460;42.684;23.260;2024-03-29T19:43:30;13.37;;;5.63;;
12792;SDS011;6460;42.684;23.260;2024-03-29T19:45:59;14.37;;;4.70;;
12792;SDS011;6460;42.684;23.260;2024-03-29T19:48:27;9.03;;;4.53;;
12792;SDS011;6460;42.684;23.260;2024-03-29T19:50:53;7.13;;;3.97;;
12792;SDS011;6460;42.684;23.260;2024-03-29T19:53:21;8.40;;;3.73;;
12792;SDS011;6460;42.684;23.260;2024-03-29T19:55:51;12.73;;;3.70;;
12792;SDS011;6460;42.684;23.260;2024-03-29T19:58:17;8.83;;;3.70;;
12792;SDS011;6460;42.684;23.260;2024-03-29T20:00:46;9.27;;;4.47;;
12792;SDS011;6460;42.684;23.260;2024-03-29T20:03:13;9.23;;;4.07;;
12792;SDS011;6460;42.684;23.260;2024-03-29T20:05:41;7.63;;;3.93;;
12792;SDS011;6460;42.684;23.260;2024-03-29T20:08:07;11.47;;;5.20;;
12792;SDS011;6460;42.684;23.260;2024-03-29T20:10:35;9.80;;;4.90;;
12792;SDS011;6460;42.684;23.260;2024-03-29T20:13:03;5.47;;;3.70;;
12792;SDS011;6460;42.684;23.260;2024-03-29T20:15:34;12.50;;;4.47;;
12792;SDS011;6460;42.684;23.260;2024-03-29T20:18:05;12.57;;;4.73;;
12792;SDS011;6460;42.684;23.260;2024-03-29T20:20:34;9.27;;;4.13;;
12792;SDS011;6460;42.684;23.260;2024-03-29T20:23:00;8.53;;;4.40;;
12792;SDS011;6460;42.684;23.260;2024-03-29T20:25:29;9.47;;;3.97;;
12792;SDS011;6460;42.684;23.260;2024-03-29T20:27:56;7.37;;;3.30;;
12792;SDS011;6460;42.684;23.260;2024-03-29T20:30:24;6.87;;;3.40;;
12792;SDS011;6460;42.684;23.260;2024-03-29T20:32:50;10.33;;;3.57;;
12792;SDS011;6460;42.684;23.260;2024-03-29T20:35:20;7.43;;;3.80;;
12792;SDS011;6460;42.684;23.260;2024-03-29T20:37:46;11.70;;;4.17;;
12792;SDS011;6460;42.684;23.260;2024-03-29T20:40:14;8.37;;;4.23;;
12792;SDS011;6460;42.684;23.260;2024-03-29T20:42:40;6.90;;;5.07;;
12792;SDS011;6460;42.684;23.260;2024-03-29T20:48:30;11.23;;;4.87;;
12792;SDS011;6460;42.684;23.260;2024-03-29T20:50:59;15.93;;;6.97;;
12792;SDS011;6460;42.684;23.260;2024-03-29T20:53:25;21.90;;;7.73;;
12792;SDS011;6460;42.684;23.260;2024-03-29T20:55:53;12.87;;;5.50;;
12792;SDS011;6460;42.684;23.260;2024-03-29T20:58:19;15.47;;;7.37;;
12792;SDS011;6460;42.684;23.260;2024-03-29T21:00:47;10.97;;;6.50;;
12792;SDS011;6460;42.684;23.260;2024-03-29T21:03:13;19.40;;;8.20;;
12792;SDS011;6460;42.684;23.260;2024-03-29T21:06:00;15.60;;;7.50;;
12792;SDS011;6460;42.684;23.260;2024-03-29T21:08:28;12.87;;;6.70;;
12792;SDS011;6460;42.684;23.260;2024-03-29T21:10:56;19.80;;;6.47;;
12792;SDS011;6460;42.684;23.260;2024-03-29T21:13:24;17.37;;;6.60;;
12792;SDS011;6460;42.684;23.260;2024-03-29T21:21:04;18.00;;;6.83;;
12792;SDS011;6460;42.684;23.260;2024-03-29T21:48:05;21.90;;;5.70;;
12792;SDS011;6460;42.684;23.260;2024-03-29T21:50:34;9.37;;;5.50;;
12792;SDS011;6460;42.684;23.260;2024-03-29T21:53:00;11.40;;;5.57;;
12792;SDS011;6460;42.684;23.260;2024-03-29T21:55:28;10.60;;;5.20;;
12792;SDS011;6460;42.684;23.260;2024-03-29T21:57:55;11.93;;;5.10;;
12792;SDS011;6460;42.684;23.260;2024-03-29T22:00:25;8.60;;;4.63;;
12792;SDS011;6460;42.684;23.260;2024-03-29T22:02:51;11.10;;;6.80;;
12792;SDS011;6460;42.684;23.260;2024-03-29T22:05:19;9.33;;;5.17;;
12792;SDS011;6460;42.684;23.260;2024-03-29T22:07:46;12.57;;;5.47;;
12792;SDS011;6460;42.684;23.260;2024-03-29T22:10:13;11.33;;;5.67;;